Terminal Aerodrome Forecast
Issued by NWS

Home | Current Version | Previous Version | Text Only | Print | Product List | Glossary On
Versions: 1 2 3 4 5 6 7 8 9 10 11 12 13
000
FTUS46 KSEW 220539
TAFHQM
TAF
KHQM 220539Z 2206/2306 32005KT P6SM BKN200
     FM221200 VRB03KT P6SM SCT004 SCT250
     FM221700 25007KT P6SM SKC
     FM230500 04003KT P6SM SKC=

USA.gov is the U.S. government's official web portal to all federal, state and local government web resources and services.